sensor_id;sensor_type;location;lat;lon;timestamp;temperature;humidity
33955;DHT22;20233;50.804;7.126;2022-08-19T00:01:48;21.50;99.90
33955;DHT22;20233;50.804;7.126;2022-08-19T00:04:17;21.50;99.90
33955;DHT22;20233;50.804;7.126;2022-08-19T00:06:45;21.50;99.90
33955;DHT22;20233;50.804;7.126;2022-08-19T00:09:12;21.50;99.90
33955;DHT22;20233;50.804;7.126;2022-08-19T00:11:38;21.50;99.90
33955;DHT22;20233;50.804;7.126;2022-08-19T00:14:06;21.40;99.90
33955;DHT22;20233;50.804;7.126;2022-08-19T00:16:32;21.40;99.90
33955;DHT22;20233;50.804;7.126;2022-08-19T00:18:58;21.30;99.90
33955;DHT22;20233;50.804;7.126;2022-08-19T00:21:25;21.40;99.90
33955;DHT22;20233;50.804;7.126;2022-08-19T00:23:52;21.40;99.90
33955;DHT22;20233;50.804;7.126;2022-08-19T00:26:18;21.40;99.90
33955;DHT22;20233;50.804;7.126;2022-08-19T00:28:44;21.40;99.90
33955;DHT22;20233;50.804;7.126;2022-08-19T00:31:10;21.30;99.90
33955;DHT22;20233;50.804;7.126;2022-08-19T00:33:36;21.30;99.90
33955;DHT22;20233;50.804;7.126;2022-08-19T00:36:05;21.30;99.90
33955;DHT22;20233;50.804;7.126;2022-08-19T00:38:32;21.30;99.90
33955;DHT22;20233;50.804;7.126;2022-08-19T00:40:58;21.30;99.90
33955;DHT22;20233;50.804;7.126;2022-08-19T00:43:25;21.30;99.90
33955;DHT22;20233;50.804;7.126;2022-08-19T00:45:51;21.30;99.90
33955;DHT22;20233;50.804;7.126;2022-08-19T00:48:18;21.30;99.90
33955;DHT22;20233;50.804;7.126;2022-08-19T00:50:44;21.20;99.90
33955;DHT22;20233;50.804;7.126;2022-08-19T00:53:15;21.20;99.90
33955;DHT22;20233;50.804;7.126;2022-08-19T00:55:45;21.10;99.90
33955;DHT22;20233;50.804;7.126;2022-08-19T00:58:14;21.10;99.90
33955;DHT22;20233;50.804;7.126;2022-08-19T01:00:41;21.00;99.90
33955;DHT22;20233;50.804;7.126;2022-08-19T01:03:12;20.90;99.90
33955;DHT22;20233;50.804;7.126;2022-08-19T01:05:40;20.90;99.90
33955;DHT22;20233;50.804;7.126;2022-08-19T01:08:07;20.90;99.90
33955;DHT22;20233;50.804;7.126;2022-08-19T01:10:43;20.80;99.90
33955;DHT22;20233;50.804;7.126;2022-08-19T01:13:10;20.80;99.90
33955;DHT22;20233;50.804;7.126;2022-08-19T01:15:48;20.80;99.90
33955;DHT22;20233;50.804;7.126;2022-08-19T01:18:16;20.80;99.90
33955;DHT22;20233;50.804;7.126;2022-08-19T01:20:43;20.80;99.90
33955;DHT22;20233;50.804;7.126;2022-08-19T01:23:09;20.80;99.90
33955;DHT22;20233;50.804;7.126;2022-08-19T01:25:44;20.70;99.90
33955;DHT22;20233;50.804;7.126;2022-08-19T01:28:23;20.60;99.90
33955;DHT22;20233;50.804;7.126;2022-08-19T01:30:52;20.50;99.90
33955;DHT22;20233;50.804;7.126;2022-08-19T01:33:18;20.60;99.90
33955;DHT22;20233;50.804;7.126;2022-08-19T01:35:45;20.60;99.90
33955;DHT22;20233;50.804;7.126;2022-08-19T01:38:21;20.60;99.90
33955;DHT22;20233;50.804;7.126;2022-08-19T01:40:47;20.50;99.90
33955;DHT22;20233;50.804;7.126;2022-08-19T01:43:13;20.30;99.90
33955;DHT22;20233;50.804;7.126;2022-08-19T01:45:39;20.40;99.90
33955;DHT22;20233;50.804;7.126;2022-08-19T01:48:06;20.40;99.90
33955;DHT22;20233;50.804;7.126;2022-08-19T01:50:33;20.40;99.90
33955;DHT22;20233;50.804;7.126;2022-08-19T01:53:01;20.40;99.90
33955;DHT22;20233;50.804;7.126;2022-08-19T01:55:27;20.40;99.90
33955;DHT22;20233;50.804;7.126;2022-08-19T01:57:56;20.30;99.90
33955;DHT22;20233;50.804;7.126;2022-08-19T02:00:24;20.30;99.90
33955;DHT22;20233;50.804;7.126;2022-08-19T02:02:51;20.30;99.90
33955;DHT22;20233;50.804;7.126;2022-08-19T02:05:16;20.30;99.90
33955;DHT22;20233;50.804;7.126;2022-08-19T02:07:44;20.30;99.90
33955;DHT22;20233;50.804;7.126;2022-08-19T02:10:13;20.30;99.90
33955;DHT22;20233;50.804;7.126;2022-08-19T02:12:39;20.30;99.90
33955;DHT22;20233;50.804;7.126;2022-08-19T02:15:07;20.30;99.90
33955;DHT22;20233;50.804;7.126;2022-08-19T02:17:33;20.30;99.90
33955;DHT22;20233;50.804;7.126;2022-08-19T02:19:58;20.30;99.90
33955;DHT22;20233;50.804;7.126;2022-08-19T02:22:24;20.30;99.90
33955;DHT22;20233;50.804;7.126;2022-08-19T02:24:51;20.30;99.90
33955;DHT22;20233;50.804;7.126;2022-08-19T02:27:17;20.30;99.90
33955;DHT22;20233;50.804;7.126;2022-08-19T02:29:43;20.30;99.90
33955;DHT22;20233;50.804;7.126;2022-08-19T02:32:08;20.30;99.90
33955;DHT22;20233;50.804;7.126;2022-08-19T02:34:34;20.30;99.90
33955;DHT22;20233;50.804;7.126;2022-08-19T02:37:00;20.20;99.90
33955;DHT22;20233;50.804;7.126;2022-08-19T02:39:25;20.20;99.90
33955;DHT22;20233;50.804;7.126;2022-08-19T02:41:51;20.20;99.90
33955;DHT22;20233;50.804;7.126;2022-08-19T02:44:18;20.20;99.90
33955;DHT22;20233;50.804;7.126;2022-08-19T02:46:45;20.10;99.90
33955;DHT22;20233;50.804;7.126;2022-08-19T02:49:11;20.10;99.90
33955;DHT22;20233;50.804;7.126;2022-08-19T02:51:40;20.00;99.90
33955;DHT22;20233;50.804;7.126;2022-08-19T02:54:09;20.00;99.90
33955;DHT22;20233;50.804;7.126;2022-08-19T02:56:37;20.00;99.90
33955;DHT22;20233;50.804;7.126;2022-08-19T02:59:04;20.00;99.90
33955;DHT22;20233;50.804;7.126;2022-08-19T03:01:37;20.00;99.90
33955;DHT22;20233;50.804;7.126;2022-08-19T03:04:04;20.00;99.90
33955;DHT22;20233;50.804;7.126;2022-08-19T03:06:31;20.00;99.90
33955;DHT22;20233;50.804;7.126;2022-08-19T03:08:57;19.90;99.90
33955;DHT22;20233;50.804;7.126;2022-08-19T03:11:27;19.90;99.90
33955;DHT22;20233;50.804;7.126;2022-08-19T03:13:54;19.80;99.90
33955;DHT22;20233;50.804;7.126;2022-08-19T03:16:22;19.80;99.90
33955;DHT22;20233;50.804;7.126;2022-08-19T03:18:48;19.80;99.90
33955;DHT22;20233;50.804;7.126;2022-08-19T03:21:18;19.90;99.90
33955;DHT22;20233;50.804;7.126;2022-08-19T03:23:44;19.80;99.90
33955;DHT22;20233;50.804;7.126;2022-08-19T03:26:10;19.90;99.90
33955;DHT22;20233;50.804;7.126;2022-08-19T03:28:36;19.80;99.90
33955;DHT22;20233;50.804;7.126;2022-08-19T03:31:13;19.80;99.90
33955;DHT22;20233;50.804;7.126;2022-08-19T03:33:39;19.90;99.90
33955;DHT22;20233;50.804;7.126;2022-08-19T03:36:20;19.80;99.90
33955;DHT22;20233;50.804;7.126;2022-08-19T03:38:51;19.80;99.90
33955;DHT22;20233;50.804;7.126;2022-08-19T03:41:20;19.80;99.90
33955;DHT22;20233;50.804;7.126;2022-08-19T03:43:47;19.70;99.90
33955;DHT22;20233;50.804;7.126;2022-08-19T03:46:16;19.80;99.90
33955;DHT22;20233;50.804;7.126;2022-08-19T03:48:43;19.80;99.90
33955;DHT22;20233;50.804;7.126;2022-08-19T03:51:18;19.70;99.90
33955;DHT22;20233;50.804;7.126;2022-08-19T03:53:45;19.50;99.90
33955;DHT22;20233;50.804;7.126;2022-08-19T03:56:10;19.60;99.90
33955;DHT22;20233;50.804;7.126;2022-08-19T03:58:36;19.60;99.90
33955;DHT22;20233;50.804;7.126;2022-08-19T04:01:07;19.60;99.90
33955;DHT22;20233;50.804;7.126;2022-08-19T04:03:34;19.60;99.90
33955;DHT22;20233;50.804;7.126;2022-08-19T04:06:10;19.60;99.90
33955;DHT22;20233;50.804;7.126;2022-08-19T04:08:36;19.70;99.90
33955;DHT22;20233;50.804;7.126;2022-08-19T04:11:07;19.70;99.90
33955;DHT22;20233;50.804;7.126;2022-08-19T04:13:33;19.70;99.90
33955;DHT22;20233;50.804;7.126;2022-08-19T04:15:59;19.70;99.90
33955;DHT22;20233;50.804;7.126;2022-08-19T04:18:24;19.70;99.90
33955;DHT22;20233;50.804;7.126;2022-08-19T04:20:51;19.70;99.90
33955;DHT22;20233;50.804;7.126;2022-08-19T04:23:17;19.70;99.90
33955;DHT22;20233;50.804;7.126;2022-08-19T04:25:44;19.70;99.90
33955;DHT22;20233;50.804;7.126;2022-08-19T04:28:11;19.70;99.90
33955;DHT22;20233;50.804;7.126;2022-08-19T04:30:49;19.70;99.90
33955;DHT22;20233;50.804;7.126;2022-08-19T04:33:17;19.70;99.90
33955;DHT22;20233;50.804;7.126;2022-08-19T04:35:45;19.60;99.90
33955;DHT22;20233;50.804;7.126;2022-08-19T04:38:13;19.60;99.90
33955;DHT22;20233;50.804;7.126;2022-08-19T04:40:43;19.60;99.90
33955;DHT22;20233;50.804;7.126;2022-08-19T04:43:28;19.70;99.90
33955;DHT22;20233;50.804;7.126;2022-08-19T04:45:55;19.60;99.90
33955;DHT22;20233;50.804;7.126;2022-08-19T04:48:21;19.60;99.90
33955;DHT22;20233;50.804;7.126;2022-08-19T04:50:53;19.60;99.90
33955;DHT22;20233;50.804;7.126;2022-08-19T04:53:26;19.60;99.90
33955;DHT22;20233;50.804;7.126;2022-08-19T04:55:55;19.60;99.90
33955;DHT22;20233;50.804;7.126;2022-08-19T04:58:22;19.60;99.90
33955;DHT22;20233;50.804;7.126;2022-08-19T05:00:48;19.60;99.90
33955;DHT22;20233;50.804;7.126;2022-08-19T05:03:14;19.60;99.90
33955;DHT22;20233;50.804;7.126;2022-08-19T05:05:43;19.70;99.90
33955;DHT22;20233;50.804;7.126;2022-08-19T05:08:10;19.70;99.90
33955;DHT22;20233;50.804;7.126;2022-08-19T05:10:39;19.60;99.90
33955;DHT22;20233;50.804;7.126;2022-08-19T05:13:05;19.60;99.90
33955;DHT22;20233;50.804;7.126;2022-08-19T05:15:31;19.60;99.90
33955;DHT22;20233;50.804;7.126;2022-08-19T05:17:57;19.60;99.90
33955;DHT22;20233;50.804;7.126;2022-08-19T05:20:41;19.70;99.90
33955;DHT22;20233;50.804;7.126;2022-08-19T05:23:26;19.70;99.90
33955;DHT22;20233;50.804;7.126;2022-08-19T05:25:51;19.70;99.90
33955;DHT22;20233;50.804;7.126;2022-08-19T05:28:19;19.70;99.90
33955;DHT22;20233;50.804;7.126;2022-08-19T05:30:45;19.70;99.90
33955;DHT22;20233;50.804;7.126;2022-08-19T05:33:11;19.70;99.90
33955;DHT22;20233;50.804;7.126;2022-08-19T05:35:38;19.70;99.90
33955;DHT22;20233;50.804;7.126;2022-08-19T05:38:05;19.70;99.90
33955;DHT22;20233;50.804;7.126;2022-08-19T05:40:34;19.70;99.90
33955;DHT22;20233;50.804;7.126;2022-08-19T05:43:01;19.80;99.90
33955;DHT22;20233;50.804;7.126;2022-08-19T05:45:27;19.90;99.90
33955;DHT22;20233;50.804;7.126;2022-08-19T05:47:53;19.90;99.90
33955;DHT22;20233;50.804;7.126;2022-08-19T05:50:19;19.90;99.90
33955;DHT22;20233;50.804;7.126;2022-08-19T05:52:45;19.90;99.90
33955;DHT22;20233;50.804;7.126;2022-08-19T05:55:11;19.80;99.90
33955;DHT22;20233;50.804;7.126;2022-08-19T05:57:36;19.80;99.90
33955;DHT22;20233;50.804;7.126;2022-08-19T06:00:04;19.90;99.90
33955;DHT22;20233;50.804;7.126;2022-08-19T06:02:34;19.90;99.90
33955;DHT22;20233;50.804;7.126;2022-08-19T06:05:01;20.00;99.90
33955;DHT22;20233;50.804;7.126;2022-08-19T06:07:28;19.90;99.90
33955;DHT22;20233;50.804;7.126;2022-08-19T06:09:55;19.90;99.90
33955;DHT22;20233;50.804;7.126;2022-08-19T06:12:21;20.00;99.90
33955;DHT22;20233;50.804;7.126;2022-08-19T06:14:58;20.10;99.90
33955;DHT22;20233;50.804;7.126;2022-08-19T06:17:24;20.10;99.90
33955;DHT22;20233;50.804;7.126;2022-08-19T06:19:51;20.10;99.90
33955;DHT22;20233;50.804;7.126;2022-08-19T06:22:17;20.10;99.90
33955;DHT22;20233;50.804;7.126;2022-08-19T06:24:43;20.20;99.90
33955;DHT22;20233;50.804;7.126;2022-08-19T06:27:09;20.20;99.90
33955;DHT22;20233;50.804;7.126;2022-08-19T06:29:34;20.20;99.90
33955;DHT22;20233;50.804;7.126;2022-08-19T06:32:02;20.20;99.90
33955;DHT22;20233;50.804;7.126;2022-08-19T06:34:30;20.30;99.90
33955;DHT22;20233;50.804;7.126;2022-08-19T06:36:57;20.30;99.90
33955;DHT22;20233;50.804;7.126;2022-08-19T06:39:30;20.20;99.90
33955;DHT22;20233;50.804;7.126;2022-08-19T06:41:58;20.40;99.90
33955;DHT22;20233;50.804;7.126;2022-08-19T06:44:27;20.30;99.90
33955;DHT22;20233;50.804;7.126;2022-08-19T06:46:54;20.50;99.90
33955;DHT22;20233;50.804;7.126;2022-08-19T06:49:21;20.60;99.90
33955;DHT22;20233;50.804;7.126;2022-08-19T06:51:48;20.70;99.90
33955;DHT22;20233;50.804;7.126;2022-08-19T06:54:15;20.80;99.90
33955;DHT22;20233;50.804;7.126;2022-08-19T06:56:42;20.80;99.90
33955;DHT22;20233;50.804;7.126;2022-08-19T06:59:14;20.80;99.90
33955;DHT22;20233;50.804;7.126;2022-08-19T07:01:43;20.90;99.90
33955;DHT22;20233;50.804;7.126;2022-08-19T07:04:11;20.90;99.90
33955;DHT22;20233;50.804;7.126;2022-08-19T07:06:37;21.00;99.90
33955;DHT22;20233;50.804;7.126;2022-08-19T07:09:04;20.90;99.90
33955;DHT22;20233;50.804;7.126;2022-08-19T07:11:30;20.60;99.90
33955;DHT22;20233;50.804;7.126;2022-08-19T07:13:56;20.90;99.90
33955;DHT22;20233;50.804;7.126;2022-08-19T07:16:21;20.90;99.90
33955;DHT22;20233;50.804;7.126;2022-08-19T07:18:48;21.00;99.90
33955;DHT22;20233;50.804;7.126;2022-08-19T07:21:17;21.00;99.90
33955;DHT22;20233;50.804;7.126;2022-08-19T07:23:44;21.10;99.90
33955;DHT22;20233;50.804;7.126;2022-08-19T07:26:19;20.90;99.90
33955;DHT22;20233;50.804;7.126;2022-08-19T07:28:46;20.90;99.90
33955;DHT22;20233;50.804;7.126;2022-08-19T07:31:16;21.20;99.90
33955;DHT22;20233;50.804;7.126;2022-08-19T07:33:43;21.30;99.90
33955;DHT22;20233;50.804;7.126;2022-08-19T07:36:11;21.50;99.90
33955;DHT22;20233;50.804;7.126;2022-08-19T07:38:39;21.50;99.90
33955;DHT22;20233;50.804;7.126;2022-08-19T07:41:07;21.60;99.90
33955;DHT22;20233;50.804;7.126;2022-08-19T07:43:34;21.80;99.90
33955;DHT22;20233;50.804;7.126;2022-08-19T07:46:00;21.80;99.90
33955;DHT22;20233;50.804;7.126;2022-08-19T07:48:27;21.50;99.90
33955;DHT22;20233;50.804;7.126;2022-08-19T07:50:57;21.50;99.90
33955;DHT22;20233;50.804;7.126;2022-08-19T07:53:23;21.40;99.90
33955;DHT22;20233;50.804;7.126;2022-08-19T07:55:50;21.70;99.90
33955;DHT22;20233;50.804;7.126;2022-08-19T07:58:18;21.60;99.90
33955;DHT22;20233;50.804;7.126;2022-08-19T08:00:46;21.80;99.90
33955;DHT22;20233;50.804;7.126;2022-08-19T08:03:13;21.90;99.90
33955;DHT22;20233;50.804;7.126;2022-08-19T08:05:39;21.90;99.90
33955;DHT22;20233;50.804;7.126;2022-08-19T08:08:24;22.00;99.90
33955;DHT22;20233;50.804;7.126;2022-08-19T08:11:08;22.30;99.90
33955;DHT22;20233;50.804;7.126;2022-08-19T08:13:34;22.70;99.90
33955;DHT22;20233;50.804;7.126;2022-08-19T08:16:01;22.70;99.90
33955;DHT22;20233;50.804;7.126;2022-08-19T08:18:27;22.80;99.90
33955;DHT22;20233;50.804;7.126;2022-08-19T08:20:54;22.60;99.90
33955;DHT22;20233;50.804;7.126;2022-08-19T08:23:20;22.90;99.90
33955;DHT22;20233;50.804;7.126;2022-08-19T08:25:52;22.80;99.90
33955;DHT22;20233;50.804;7.126;2022-08-19T08:28:18;22.90;99.90
33955;DHT22;20233;50.804;7.126;2022-08-19T08:30:45;23.00;99.90
33955;DHT22;20233;50.804;7.126;2022-08-19T08:33:13;23.10;99.90
33955;DHT22;20233;50.804;7.126;2022-08-19T08:35:40;23.10;99.90
33955;DHT22;20233;50.804;7.126;2022-08-19T08:38:07;23.50;99.90
33955;DHT22;20233;50.804;7.126;2022-08-19T08:40:46;23.10;99.90
33955;DHT22;20233;50.804;7.126;2022-08-19T08:43:30;22.90;99.90
33955;DHT22;20233;50.804;7.126;2022-08-19T08:51:24;22.90;99.90
33955;DHT22;20233;50.804;7.126;2022-08-19T08:53:52;23.30;99.90
33955;DHT22;20233;50.804;7.126;2022-08-19T08:56:19;23.60;99.90
33955;DHT22;20233;50.804;7.126;2022-08-19T08:58:54;23.40;99.90
33955;DHT22;20233;50.804;7.126;2022-08-19T09:01:21;22.80;99.90
33955;DHT22;20233;50.804;7.126;2022-08-19T09:03:48;23.10;99.90
33955;DHT22;20233;50.804;7.126;2022-08-19T09:06:37;23.20;99.90
33955;DHT22;20233;50.804;7.126;2022-08-19T09:15:03;24.00;99.90
33955;DHT22;20233;50.804;7.126;2022-08-19T09:17:30;22.90;99.90
33955;DHT22;20233;50.804;7.126;2022-08-19T09:22:31;23.10;99.90
33955;DHT22;20233;50.804;7.126;2022-08-19T09:24:56;23.50;99.90
33955;DHT22;20233;50.804;7.126;2022-08-19T09:27:24;23.80;99.90
33955;DHT22;20233;50.804;7.126;2022-08-19T09:29:52;23.90;99.90
33955;DHT22;20233;50.804;7.126;2022-08-19T09:32:19;24.20;99.90
33955;DHT22;20233;50.804;7.126;2022-08-19T09:34:45;24.40;99.90
33955;DHT22;20233;50.804;7.126;2022-08-19T09:37:12;24.50;99.90
33955;DHT22;20233;50.804;7.126;2022-08-19T09:39:39;24.60;99.90
33955;DHT22;20233;50.804;7.126;2022-08-19T09:42:06;24.60;99.90
33955;DHT22;20233;50.804;7.126;2022-08-19T09:44:40;24.00;99.90
33955;DHT22;20233;50.804;7.126;2022-08-19T09:47:07;24.40;99.90
33955;DHT22;20233;50.804;7.126;2022-08-19T09:49:33;24.60;99.90
33955;DHT22;20233;50.804;7.126;2022-08-19T09:51:59;24.80;99.90
33955;DHT22;20233;50.804;7.126;2022-08-19T09:54:25;24.50;99.90
33955;DHT22;20233;50.804;7.126;2022-08-19T09:56:51;24.70;99.90
33955;DHT22;20233;50.804;7.126;2022-08-19T09:59:17;24.90;99.90
33955;DHT22;20233;50.804;7.126;2022-08-19T10:01:43;24.90;99.90
33955;DHT22;20233;50.804;7.126;2022-08-19T10:04:08;25.00;99.90
33955;DHT22;20233;50.804;7.126;2022-08-19T10:06:37;25.00;99.90
33955;DHT22;20233;50.804;7.126;2022-08-19T10:09:04;25.10;99.90
33955;DHT22;20233;50.804;7.126;2022-08-19T10:11:32;24.80;99.90
33955;DHT22;20233;50.804;7.126;2022-08-19T10:13:59;24.70;99.90
33955;DHT22;20233;50.804;7.126;2022-08-19T10:16:25;24.90;99.90
33955;DHT22;20233;50.804;7.126;2022-08-19T10:18:52;25.10;99.90
33955;DHT22;20233;50.804;7.126;2022-08-19T10:21:25;25.40;99.90
33955;DHT22;20233;50.804;7.126;2022-08-19T10:23:53;25.40;99.90
33955;DHT22;20233;50.804;7.126;2022-08-19T10:26:22;24.70;99.90
33955;DHT22;20233;50.804;7.126;2022-08-19T10:28:49;24.90;99.90
33955;DHT22;20233;50.804;7.126;2022-08-19T10:31:22;25.30;99.90
33955;DHT22;20233;50.804;7.126;2022-08-19T10:33:49;25.60;99.90
33955;DHT22;20233;50.804;7.126;2022-08-19T10:36:20;25.10;99.90
33955;DHT22;20233;50.804;7.126;2022-08-19T10:38:50;25.00;99.90
33955;DHT22;20233;50.804;7.126;2022-08-19T10:41:21;24.90;99.90
33955;DHT22;20233;50.804;7.126;2022-08-19T10:43:51;25.50;99.90
33955;DHT22;20233;50.804;7.126;2022-08-19T10:46:18;25.20;99.90
33955;DHT22;20233;50.804;7.126;2022-08-19T10:48:44;24.90;99.90
33955;DHT22;20233;50.804;7.126;2022-08-19T10:51:11;25.10;99.90
33955;DHT22;20233;50.804;7.126;2022-08-19T10:53:56;25.50;99.90
33955;DHT22;20233;50.804;7.126;2022-08-19T10:56:23;24.90;99.90
33955;DHT22;20233;50.804;7.126;2022-08-19T10:59:07;25.20;99.90
33955;DHT22;20233;50.804;7.126;2022-08-19T11:01:34;24.70;99.90
33955;DHT22;20233;50.804;7.126;2022-08-19T11:04:03;25.20;99.90
33955;DHT22;20233;50.804;7.126;2022-08-19T11:06:31;25.40;99.90
33955;DHT22;20233;50.804;7.126;2022-08-19T11:08:58;25.00;99.90
33955;DHT22;20233;50.804;7.126;2022-08-19T11:11:26;25.30;99.90
33955;DHT22;20233;50.804;7.126;2022-08-19T11:13:52;25.10;99.90
33955;DHT22;20233;50.804;7.126;2022-08-19T11:16:20;25.20;99.90
33955;DHT22;20233;50.804;7.126;2022-08-19T11:18:50;25.60;99.90
33955;DHT22;20233;50.804;7.126;2022-08-19T11:21:30;25.50;99.90
33955;DHT22;20233;50.804;7.126;2022-08-19T11:23:59;24.90;99.90
33955;DHT22;20233;50.804;7.126;2022-08-19T11:26:28;24.90;99.90
33955;DHT22;20233;50.804;7.126;2022-08-19T11:28:55;25.40;99.90
33955;DHT22;20233;50.804;7.126;2022-08-19T11:31:24;25.50;99.90
33955;DHT22;20233;50.804;7.126;2022-08-19T11:33:50;25.30;99.90
33955;DHT22;20233;50.804;7.126;2022-08-19T11:36:17;25.50;99.90
33955;DHT22;20233;50.804;7.126;2022-08-19T11:38:44;25.60;99.90
33955;DHT22;20233;50.804;7.126;2022-08-19T11:41:10;25.50;99.90
33955;DHT22;20233;50.804;7.126;2022-08-19T11:43:36;25.90;99.90
33955;DHT22;20233;50.804;7.126;2022-08-19T11:46:06;25.90;99.90
33955;DHT22;20233;50.804;7.126;2022-08-19T11:48:35;25.60;99.90
33955;DHT22;20233;50.804;7.126;2022-08-19T11:51:05;25.80;99.90
33955;DHT22;20233;50.804;7.126;2022-08-19T11:53:35;25.70;99.90
33955;DHT22;20233;50.804;7.126;2022-08-19T11:56:02;26.00;99.90
33955;DHT22;20233;50.804;7.126;2022-08-19T11:58:27;26.30;99.90
33955;DHT22;20233;50.804;7.126;2022-08-19T12:00:54;26.30;99.90
33955;DHT22;20233;50.804;7.126;2022-08-19T12:03:19;26.60;99.90
33955;DHT22;20233;50.804;7.126;2022-08-19T12:05:46;26.70;99.90
33955;DHT22;20233;50.804;7.126;2022-08-19T12:08:11;26.90;99.90
33955;DHT22;20233;50.804;7.126;2022-08-19T12:10:38;26.30;99.90
33955;DHT22;20233;50.804;7.126;2022-08-19T12:13:04;26.10;99.90
33955;DHT22;20233;50.804;7.126;2022-08-19T12:15:30;26.00;99.90
33955;DHT22;20233;50.804;7.126;2022-08-19T12:17:57;25.60;99.90
33955;DHT22;20233;50.804;7.126;2022-08-19T12:20:23;26.00;99.90
33955;DHT22;20233;50.804;7.126;2022-08-19T12:22:50;26.20;99.90
33955;DHT22;20233;50.804;7.126;2022-08-19T12:25:16;26.30;99.90
33955;DHT22;20233;50.804;7.126;2022-08-19T12:27:42;26.80;99.90
33955;DHT22;20233;50.804;7.126;2022-08-19T12:30:10;26.70;99.90
33955;DHT22;20233;50.804;7.126;2022-08-19T12:32:36;26.20;99.90
33955;DHT22;20233;50.804;7.126;2022-08-19T12:35:02;26.30;99.90
33955;DHT22;20233;50.804;7.126;2022-08-19T12:37:28;26.60;99.90
33955;DHT22;20233;50.804;7.126;2022-08-19T12:39:55;27.00;99.90
33955;DHT22;20233;50.804;7.126;2022-08-19T12:42:20;27.00;99.90
33955;DHT22;20233;50.804;7.126;2022-08-19T12:44:47;27.30;99.90
33955;DHT22;20233;50.804;7.126;2022-08-19T12:47:13;27.30;99.90
33955;DHT22;20233;50.804;7.126;2022-08-19T12:49:40;27.40;99.90
33955;DHT22;20233;50.804;7.126;2022-08-19T12:52:07;27.40;99.90
33955;DHT22;20233;50.804;7.126;2022-08-19T12:54:35;27.40;99.90
33955;DHT22;20233;50.804;7.126;2022-08-19T12:57:05;27.30;99.90
33955;DHT22;20233;50.804;7.126;2022-08-19T12:59:31;27.50;99.90
33955;DHT22;20233;50.804;7.126;2022-08-19T13:01:56;27.50;99.90
33955;DHT22;20233;50.804;7.126;2022-08-19T13:04:22;27.90;99.90
33955;DHT22;20233;50.804;7.126;2022-08-19T13:06:49;27.40;99.90
33955;DHT22;20233;50.804;7.126;2022-08-19T13:09:14;27.70;99.90
33955;DHT22;20233;50.804;7.126;2022-08-19T13:11:40;27.80;99.90
33955;DHT22;20233;50.804;7.126;2022-08-19T13:14:06;27.40;99.90
33955;DHT22;20233;50.804;7.126;2022-08-19T13:16:31;27.60;99.90
33955;DHT22;20233;50.804;7.126;2022-08-19T13:18:58;27.20;99.90
33955;DHT22;20233;50.804;7.126;2022-08-19T13:21:26;27.30;99.90
33955;DHT22;20233;50.804;7.126;2022-08-19T13:23:53;27.20;99.90
33955;DHT22;20233;50.804;7.126;2022-08-19T13:26:20;27.20;99.90
33955;DHT22;20233;50.804;7.126;2022-08-19T13:28:46;27.30;99.90
33955;DHT22;20233;50.804;7.126;2022-08-19T13:34:17;27.30;99.90
33955;DHT22;20233;50.804;7.126;2022-08-19T13:36:45;27.40;99.90
33955;DHT22;20233;50.804;7.126;2022-08-19T13:39:10;27.30;99.90
33955;DHT22;20233;50.804;7.126;2022-08-19T13:41:37;27.80;99.90
33955;DHT22;20233;50.804;7.126;2022-08-19T13:44:07;28.10;99.90
33955;DHT22;20233;50.804;7.126;2022-08-19T13:46:33;27.90;99.90
33955;DHT22;20233;50.804;7.126;2022-08-19T13:48:59;27.20;99.90
33955;DHT22;20233;50.804;7.126;2022-08-19T13:51:24;27.20;99.90
33955;DHT22;20233;50.804;7.126;2022-08-19T13:53:50;27.10;99.90
33955;DHT22;20233;50.804;7.126;2022-08-19T13:56:18;27.40;99.90
33955;DHT22;20233;50.804;7.126;2022-08-19T13:58:45;27.50;99.90
33955;DHT22;20233;50.804;7.126;2022-08-19T14:01:11;27.50;99.90
33955;DHT22;20233;50.804;7.126;2022-08-19T14:03:37;27.70;99.90
33955;DHT22;20233;50.804;7.126;2022-08-19T14:06:03;27.70;99.90
33955;DHT22;20233;50.804;7.126;2022-08-19T14:08:29;27.90;99.90
33955;DHT22;20233;50.804;7.126;2022-08-19T14:10:57;27.60;99.90
33955;DHT22;20233;50.804;7.126;2022-08-19T14:13:23;27.70;99.90
33955;DHT22;20233;50.804;7.126;2022-08-19T14:15:50;27.90;99.90
33955;DHT22;20233;50.804;7.126;2022-08-19T14:18:17;27.80;99.90
33955;DHT22;20233;50.804;7.126;2022-08-19T14:20:43;27.80;99.90
33955;DHT22;20233;50.804;7.126;2022-08-19T14:23:09;28.20;99.90
33955;DHT22;20233;50.804;7.126;2022-08-19T14:25:36;28.50;99.90
33955;DHT22;20233;50.804;7.126;2022-08-19T14:28:01;28.90;99.90
33955;DHT22;20233;50.804;7.126;2022-08-19T14:30:30;28.80;99.90
33955;DHT22;20233;50.804;7.126;2022-08-19T14:32:57;29.30;99.90
33955;DHT22;20233;50.804;7.126;2022-08-19T14:35:24;29.40;99.90
33955;DHT22;20233;50.804;7.126;2022-08-19T14:37:50;29.20;99.90
33955;DHT22;20233;50.804;7.126;2022-08-19T14:40:19;29.40;99.90
33955;DHT22;20233;50.804;7.126;2022-08-19T14:42:46;29.20;99.90
33955;DHT22;20233;50.804;7.126;2022-08-19T14:45:12;29.10;99.90
33955;DHT22;20233;50.804;7.126;2022-08-19T14:47:39;29.50;99.90
33955;DHT22;20233;50.804;7.126;2022-08-19T14:50:09;29.60;99.90
33955;DHT22;20233;50.804;7.126;2022-08-19T14:52:35;29.50;99.90
33955;DHT22;20233;50.804;7.126;2022-08-19T14:55:02;29.90;99.90
33955;DHT22;20233;50.804;7.126;2022-08-19T14:57:28;29.30;99.90
33955;DHT22;20233;50.804;7.126;2022-08-19T14:59:53;29.40;99.90
33955;DHT22;20233;50.804;7.126;2022-08-19T15:02:19;29.30;99.90
33955;DHT22;20233;50.804;7.126;2022-08-19T15:04:45;29.50;99.90
33955;DHT22;20233;50.804;7.126;2022-08-19T15:07:11;29.10;99.90
33955;DHT22;20233;50.804;7.126;2022-08-19T15:09:37;29.00;99.90
33955;DHT22;20233;50.804;7.126;2022-08-19T15:12:03;29.50;99.90
33955;DHT22;20233;50.804;7.126;2022-08-19T15:14:30;29.80;99.90
33955;DHT22;20233;50.804;7.126;2022-08-19T15:17:00;29.80;99.90
33955;DHT22;20233;50.804;7.126;2022-08-19T15:19:25;29.90;99.90
33955;DHT22;20233;50.804;7.126;2022-08-19T15:21:51;29.90;99.90
33955;DHT22;20233;50.804;7.126;2022-08-19T15:24:16;30.00;99.90
33955;DHT22;20233;50.804;7.126;2022-08-19T15:26:42;30.00;99.90
33955;DHT22;20233;50.804;7.126;2022-08-19T15:29:08;29.40;99.90
33955;DHT22;20233;50.804;7.126;2022-08-19T15:31:34;29.50;99.90
33955;DHT22;20233;50.804;7.126;2022-08-19T15:34:02;29.50;99.90
33955;DHT22;20233;50.804;7.126;2022-08-19T15:36:28;29.90;99.90
33955;DHT22;20233;50.804;7.126;2022-08-19T15:38:55;29.80;99.90
33955;DHT22;20233;50.804;7.126;2022-08-19T15:41:24;30.00;99.90
33955;DHT22;20233;50.804;7.126;2022-08-19T15:44:02;29.40;99.90
33955;DHT22;20233;50.804;7.126;2022-08-19T15:46:31;29.20;99.90
33955;DHT22;20233;50.804;7.126;2022-08-19T15:48:57;29.50;99.90
33955;DHT22;20233;50.804;7.126;2022-08-19T15:51:25;29.10;99.90